Time;durP1;ratioP1;P1;durP2;ratioP2;P2;SDS_P1;SDS_P2;PMS_P1;PMS_P2;Temp;Humidity;BMP_temperature;BMP_pressure;BME280_temperature;BME280_humidity;BME280_pressure;Samples;Min_cycle;Max_cycle;Signal;HPM_P1;HPM_P2
2023/08/13 00:02:11;;;;;;;4.05;3.72;;;17.60;99.90;;;;;;5191766;28;20037;-67
2023/08/13 00:04:46;;;;;;;4.45;3.95;;;17.60;99.90;;;;;;5167737;28;20055;-67
2023/08/13 00:07:17;;;;;;;8.52;4.15;;;17.60;99.90;;;;;;5213568;28;20060;-69
2023/08/13 00:09:51;;;;;;;3.85;3.33;;;17.70;99.90;;;;;;5213575;28;20371;-68
2023/08/13 00:12:23;;;;;;;4.45;3.67;;;17.80;99.90;;;;;;5180356;28;20045;-66
2023/08/13 00:14:56;;;;;;;3.90;3.50;;;17.80;99.90;;;;;;5181894;28;20045;-66
2023/08/13 00:17:29;;;;;;;3.72;3.33;;;17.90;99.90;;;;;;5189259;28;20043;-67
2023/08/13 00:20:04;;;;;;;4.85;3.92;;;17.90;99.90;;;;;;5218567;28;20066;-71
2023/08/13 00:22:37;;;;;;;3.78;3.30;;;17.90;99.90;;;;;;5190367;28;20039;-70
2023/08/13 00:25:15;;;;;;;6.18;4.00;;;18.00;99.90;;;;;;5202003;28;20041;-68
2023/08/13 00:27:47;;;;;;;3.67;3.38;;;18.00;99.90;;;;;;5190389;28;20041;-66
2023/08/13 00:30:24;;;;;;;4.50;3.65;;;18.10;99.90;;;;;;5232857;28;20382;-65
2023/08/13 00:33:00;;;;;;;5.20;3.95;;;18.10;99.90;;;;;;5181473;28;20049;-66
2023/08/13 00:35:32;;;;;;;4.80;3.25;;;18.20;99.90;;;;;;5205554;28;20045;-70
2023/08/13 00:38:04;;;;;;;3.95;3.55;;;18.30;99.90;;;;;;5205095;28;20044;-69
2023/08/13 00:40:40;;;;;;;3.90;3.20;;;18.30;99.90;;;;;;5205754;28;20045;-69
2023/08/13 00:43:14;;;;;;;4.53;3.50;;;18.20;99.90;;;;;;5189514;28;20032;-66
2023/08/13 00:45:46;;;;;;;4.00;3.40;;;18.30;99.90;;;;;;5204957;28;20040;-69
2023/08/13 00:48:24;;;;;;;2.85;2.65;;;18.40;99.90;;;;;;5214403;28;20033;-67
2023/08/13 00:51:06;;;;;;;3.72;3.42;;;18.40;99.90;;;;;;5206494;28;20595;-69
2023/08/13 00:53:46;;;;;;;4.25;3.80;;;18.50;99.90;;;;;;5205602;28;20344;-68
2023/08/13 00:56:30;;;;;;;4.53;3.40;;;18.40;99.90;;;;;;5221791;28;20047;-70
2023/08/13 00:59:03;;;;;;;4.73;3.40;;;18.50;99.90;;;;;;5196414;28;20044;-70
2023/08/13 01:01:36;;;;;;;4.00;3.60;;;18.50;99.90;;;;;;5254447;22;20500;-70
2023/08/13 01:04:11;;;;;;;3.75;3.13;;;18.50;99.90;;;;;;5167258;28;20071;-69
2023/08/13 01:07:29;;;;;;;3.65;3.35;;;18.60;99.90;;;;;;5183860;28;20035;-67
2023/08/13 01:10:19;;;;;;;3.95;2.97;;;18.70;99.90;;;;;;5185030;28;20043;-65
2023/08/13 01:13:02;;;;;;;4.05;3.65;;;18.80;99.90;;;;;;5199269;28;20033;-68
2023/08/13 01:15:41;;;;;;;3.80;3.45;;;18.90;99.90;;;;;;5198804;28;20067;-67
2023/08/13 01:18:16;;;;;;;4.10;3.67;;;18.90;99.90;;;;;;5201135;28;20053;-66
2023/08/13 01:20:51;;;;;;;3.65;3.35;;;18.90;99.90;;;;;;5184835;28;20378;-67
2023/08/13 01:23:25;;;;;;;4.32;3.63;;;18.90;99.90;;;;;;5176520;28;20069;-67
2023/08/13 01:26:10;;;;;;;5.38;3.53;;;18.80;99.90;;;;;;5184475;28;20055;-66
2023/08/13 01:29:03;;;;;;;;;;;18.80;99.90;;;;;;5202253;28;20044;-68
2023/08/13 01:31:38;;;;;;;4.07;3.22;;;18.80;99.90;;;;;;5198089;28;19924;-70
2023/08/13 01:34:11;;;;;;;3.80;3.33;;;18.80;99.90;;;;;;5174042;28;20045;-69
2023/08/13 01:36:44;;;;;;;4.75;3.55;;;18.70;99.90;;;;;;5178132;28;20075;-66
2023/08/13 01:39:21;;;;;;;5.78;3.67;;;18.70;99.90;;;;;;5186256;28;20041;-68
2023/08/13 01:41:58;;;;;;;4.00;3.58;;;18.70;99.90;;;;;;5182755;28;20051;-67
2023/08/13 01:44:34;;;;;;;3.60;3.05;;;18.60;99.90;;;;;;5185220;28;20053;-66
2023/08/13 01:47:06;;;;;;;4.43;3.95;;;18.60;99.90;;;;;;5180689;28;20040;-69
2023/08/13 01:49:41;;;;;;;4.20;3.78;;;18.60;99.90;;;;;;5199497;28;20033;-69
2023/08/13 01:52:15;;;;;;;4.32;3.80;;;18.60;99.90;;;;;;5200176;28;20029;-66
2023/08/13 01:54:51;;;;;;;4.03;3.55;;;18.50;99.90;;;;;;5165619;28;20045;-69
2023/08/13 01:57:26;;;;;;;3.97;3.58;;;18.50;99.90;;;;;;5182199;28;20378;-68
2023/08/13 01:59:57;;;;;;;;;;;18.50;99.90;;;;;;5181088;28;20300;-67
2023/08/13 02:02:31;;;;;;;4.43;3.75;;;18.40;99.90;;;;;;5186945;28;19927;-69
2023/08/13 02:05:07;;;;;;;4.72;3.78;;;18.30;99.90;;;;;;5185960;28;20037;-68
2023/08/13 02:07:43;;;;;;;5.35;3.97;;;18.20;99.90;;;;;;5188528;28;20041;-69
2023/08/13 02:10:15;;;;;;;3.95;3.47;;;18.20;99.90;;;;;;5187195;28;20032;-67
2023/08/13 02:12:49;;;;;;;4.07;3.75;;;18.10;99.90;;;;;;5204368;28;20051;-68
2023/08/13 02:15:24;;;;;;;;;;;18.00;99.90;;;;;;5189046;28;20045;-68
2023/08/13 02:17:59;;;;;;;4.38;3.97;;;18.00;99.90;;;;;;5203438;28;19912;-67
2023/08/13 02:20:33;;;;;;;4.25;3.83;;;18.00;99.90;;;;;;5205111;28;20203;-68
2023/08/13 02:23:05;;;;;;;6.13;3.50;;;17.90;99.90;;;;;;5206684;28;20040;-67
2023/08/13 02:25:40;;;;;;;4.80;4.18;;;17.90;99.90;;;;;;5207761;28;20050;-66
2023/08/13 02:28:11;;;;;;;3.72;3.33;;;17.80;99.90;;;;;;5206460;28;20039;-68
2023/08/13 02:30:45;;;;;;;3.67;3.28;;;17.80;99.90;;;;;;5202053;28;20036;-66
2023/08/13 02:33:17;;;;;;;4.68;3.83;;;17.70;99.90;;;;;;5219984;28;20041;-69
2023/08/13 02:35:49;;;;;;;4.63;3.75;;;17.70;99.90;;;;;;5187173;28;20334;-69
2023/08/13 02:38:26;;;;;;;;;;;17.70;99.90;;;;;;5203322;28;20041;-67
2023/08/13 02:40:58;;;;;;;4.57;4.10;;;17.60;99.90;;;;;;5216861;28;19927;-67
2023/08/13 02:43:51;;;;;;;4.78;4.00;;;17.50;99.90;;;;;;5190715;28;20629;-67
2023/08/13 02:46:27;;;;;;;5.63;4.13;;;17.40;99.90;;;;;;5198846;28;20209;-68
2023/08/13 02:48:59;;;;;;;4.43;3.97;;;17.40;99.90;;;;;;5219770;28;20479;-69
2023/08/13 02:51:33;;;;;;;4.80;4.07;;;17.40;99.90;;;;;;5221375;28;20037;-69
2023/08/13 02:54:05;;;;;;;4.40;4.00;;;17.30;99.90;;;;;;5214222;28;20416;-68
2023/08/13 02:56:42;;;;;;;4.85;4.20;;;17.20;99.90;;;;;;5199530;28;20056;-69
2023/08/13 02:59:14;;;;;;;4.70;3.90;;;17.20;99.90;;;;;;5166785;28;20037;-70
2023/08/13 03:01:45;;;;;;;6.40;4.35;;;17.10;99.90;;;;;;5204910;28;20229;-68
2023/08/13 03:04:17;;;;;;;5.10;4.45;;;17.10;99.90;;;;;;5209770;28;20054;-69
2023/08/13 03:06:51;;;;;;;4.15;3.42;;;17.20;99.90;;;;;;5207248;28;20088;-66
2023/08/13 03:09:28;;;;;;;5.88;5.20;;;17.10;99.90;;;;;;5242035;28;20046;-66
2023/08/13 03:12:03;;;;;;;4.90;4.38;;;17.10;99.90;;;;;;5216912;28;20048;-69
2023/08/13 03:14:35;;;;;;;4.28;3.88;;;17.00;99.90;;;;;;5215478;28;20055;-67
2023/08/13 03:17:07;;;;;;;4.18;3.78;;;16.90;99.90;;;;;;5184225;28;20048;-68
2023/08/13 03:19:38;;;;;;;5.85;3.90;;;16.90;99.90;;;;;;5170430;28;20049;-68
2023/08/13 03:22:10;;;;;;;5.22;4.32;;;16.90;99.90;;;;;;5167634;28;20469;-69
2023/08/13 03:24:42;;;;;;;4.35;3.95;;;16.90;99.90;;;;;;5199466;28;20037;-69
2023/08/13 03:27:16;;;;;;;4.47;3.95;;;16.90;99.90;;;;;;5202654;28;20062;-67
2023/08/13 03:29:58;;;;;;;4.93;3.78;;;16.90;99.90;;;;;;5186627;28;20062;-67
2023/08/13 03:32:32;;;;;;;4.60;4.18;;;16.90;99.90;;;;;;5195164;28;20045;-68
2023/08/13 03:35:04;;;;;;;4.30;3.90;;;16.90;99.90;;;;;;5199608;28;20484;-68
2023/08/13 03:37:36;;;;;;;4.47;3.92;;;16.80;99.90;;;;;;5183325;28;20391;-69
2023/08/13 03:40:09;;;;;;;4.75;4.05;;;16.80;99.90;;;;;;5166128;28;20039;-67
2023/08/13 03:42:43;;;;;;;5.30;4.18;;;16.80;99.90;;;;;;5216087;28;20531;-68
2023/08/13 03:45:15;;;;;;;5.53;4.53;;;16.80;99.90;;;;;;5211718;28;20045;-70
2023/08/13 03:47:49;;;;;;;6.13;4.03;;;16.80;99.90;;;;;;5182741;28;20391;-68
2023/08/13 03:50:22;;;;;;;4.68;4.18;;;16.80;99.90;;;;;;5180125;28;20075;-68
2023/08/13 03:52:53;;;;;;;4.47;4.03;;;16.80;99.90;;;;;;5178656;28;20045;-66
2023/08/13 03:55:28;;;;;;;3.83;3.50;;;16.80;99.90;;;;;;5195053;28;20051;-67
2023/08/13 03:58:05;;;;;;;4.57;4.10;;;16.80;99.90;;;;;;5192733;28;20021;-69
2023/08/13 04:00:42;;;;;;;5.65;3.90;;;16.90;99.90;;;;;;5196806;28;20276;-68
2023/08/13 04:03:16;;;;;;;5.53;4.18;;;16.90;99.90;;;;;;5201979;28;20418;-66
2023/08/13 04:05:51;;;;;;;6.10;3.95;;;16.90;99.90;;;;;;5185279;28;20039;-68
2023/08/13 04:08:29;;;;;;;6.93;4.10;;;16.90;99.90;;;;;;5222592;28;20142;-67
2023/08/13 04:11:01;;;;;;;4.47;4.07;;;16.90;99.90;;;;;;5203923;28;20033;-68
2023/08/13 04:13:36;;;;;;;4.88;4.18;;;17.00;99.90;;;;;;5190993;28;20041;-67
2023/08/13 04:16:10;;;;;;;5.65;5.13;;;17.10;99.90;;;;;;5216066;28;20160;-69
2023/08/13 04:18:44;;;;;;;5.22;4.50;;;17.20;99.90;;;;;;5186302;28;20045;-66
2023/08/13 04:21:19;;;;;;;3.85;3.55;;;17.30;99.90;;;;;;5216633;28;20041;-66
2023/08/13 04:24:01;;;;;;;;;;;17.40;99.90;;;;;;5201610;28;20056;-69
2023/08/13 04:26:34;;;;;;;4.07;3.67;;;17.60;99.90;;;;;;5224632;28;19916;-67
2023/08/13 04:29:08;;;;;;;7.40;3.67;;;17.90;99.90;;;;;;5215125;28;20176;-69
2023/08/13 04:31:43;;;;;;;3.92;3.53;;;18.00;99.90;;;;;;5205628;28;20033;-67
2023/08/13 04:34:17;;;;;;;4.30;3.53;;;18.20;99.90;;;;;;5174289;28;20059;-65
2023/08/13 04:36:52;;;;;;;7.30;4.60;;;18.40;99.90;;;;;;5224638;28;20409;-69
2023/08/13 04:39:23;;;;;;;4.45;3.78;;;18.70;99.90;;;;;;5203559;28;20110;-67
2023/08/13 04:41:59;;;;;;;5.28;4.05;;;18.70;99.90;;;;;;5202024;28;20041;-68
2023/08/13 04:44:31;;;;;;;4.32;3.72;;;18.90;99.90;;;;;;5189646;28;20052;-68
2023/08/13 04:47:06;;;;;;;3.88;3.55;;;18.90;99.90;;;;;;5204853;28;20045;-68
2023/08/13 04:49:42;;;;;;;4.50;3.65;;;19.00;99.90;;;;;;5203677;28;20440;-69
2023/08/13 04:52:18;;;;;;;3.83;3.13;;;19.40;99.90;;;;;;5205307;28;20065;-69
2023/08/13 04:54:58;;;;;;;3.78;3.47;;;19.80;1.60;;;;;;5205293;28;20037;-69
2023/08/13 04:57:30;;;;;;;4.63;3.25;;;20.00;1.00;;;;;;5190091;28;20051;-68
2023/08/13 05:00:03;;;;;;;3.63;3.25;;;20.40;1.00;;;;;;5220156;28;20348;-68
2023/08/13 05:02:36;;;;;;;4.03;3.38;;;20.70;1.00;;;;;;5198688;28;20049;-69
2023/08/13 05:05:07;;;;;;;3.72;3.33;;;21.00;1.00;;;;;;5168805;28;20037;-70
2023/08/13 05:07:45;;;;;;;4.35;3.13;;;21.20;1.00;;;;;;5185832;28;20033;-68
2023/08/13 05:10:21;;;;;;;3.70;3.28;;;21.40;1.00;;;;;;5204895;28;20225;-71
2023/08/13 05:12:58;;;;;;;4.07;3.55;;;21.60;99.90;;;;;;5187094;28;20049;-68
2023/08/13 05:15:32;;;;;;;5.65;3.00;;;21.70;99.90;;;;;;5199125;28;20037;-69
2023/08/13 05:18:06;;;;;;;3.85;2.95;;;21.90;99.90;;;;;;5185121;28;20025;-68
2023/08/13 05:20:43;;;;;;;3.92;3.22;;;22.20;99.90;;;;;;5187921;28;20482;-68
2023/08/13 05:23:18;;;;;;;4.60;3.65;;;22.20;99.90;;;;;;5224237;28;20202;-66
2023/08/13 05:25:52;;;;;;;3.90;3.08;;;22.20;99.90;;;;;;5172959;28;20045;-68
2023/08/13 05:28:24;;;;;;;;;;;22.10;99.90;;;;;;5202373;28;20042;-72
2023/08/13 05:30:55;;;;;;;3.30;3.00;;;22.30;68.80;;;;;;5204685;28;20436;-69
2023/08/13 05:33:26;;;;;;;3.30;3.00;;;22.60;16.50;;;;;;5205918;28;20551;-69
2023/08/13 05:35:58;;;;;;;4.78;3.78;;;22.90;1.00;;;;;;5206661;28;20029;-68
2023/08/13 05:38:32;;;;;;;3.85;3.33;;;23.00;1.00;;;;;;5192988;28;20033;-67
2023/08/13 05:41:06;;;;;;;3.35;3.00;;;22.80;1.00;;;;;;5212417;28;20033;-69
2023/08/13 05:43:41;;;;;;;3.95;3.17;;;22.70;1.00;;;;;;5190979;28;20577;-70
2023/08/13 05:46:18;;;;;;;3.13;2.83;;;22.70;1.00;;;;;;5198163;28;20149;-67
2023/08/13 05:48:58;;;;;;;5.55;3.30;;;22.80;1.00;;;;;;5211422;28;20041;-69
2023/08/13 05:51:32;;;;;;;3.28;2.78;;;22.80;1.00;;;;;;5192946;28;20080;-69
2023/08/13 05:54:08;;;;;;;4.85;3.20;;;23.10;1.00;;;;;;5200598;28;20029;-68
2023/08/13 05:56:43;;;;;;;5.93;3.22;;;23.50;1.00;;;;;;5171859;28;20049;-68
2023/08/13 05:59:25;;;;;;;;;;;23.90;1.00;;;;;;5217815;28;20047;-72
2023/08/13 06:01:56;;;;;;;3.55;2.88;;;24.20;1.00;;;;;;5208221;28;19919;-70
2023/08/13 06:04:28;;;;;;;4.85;3.97;;;23.70;1.00;;;;;;5233761;28;20043;-69
2023/08/13 06:06:59;;;;;;;4.32;3.78;;;23.90;99.90;;;;;;5210637;28;20033;-70
2023/08/13 06:09:34;;;;;;;3.22;2.92;;;23.80;99.90;;;;;;5178210;28;20045;-69
2023/08/13 06:12:07;;;;;;;4.63;3.35;;;24.00;99.90;;;;;;5206385;28;20029;-70
2023/08/13 06:14:38;;;;;;;4.75;3.05;;;24.10;1.00;;;;;;5210505;28;20436;-71
2023/08/13 06:17:10;;;;;;;3.80;3.50;;;24.30;1.00;;;;;;5213657;28;20031;-69
2023/08/13 06:19:43;;;;;;;3.85;3.35;;;24.20;1.00;;;;;;5202004;28;20037;-67
2023/08/13 06:22:18;;;;;;;5.18;3.50;;;24.10;1.00;;;;;;5164656;28;20045;-68
2023/08/13 06:24:50;;;;;;;4.10;3.50;;;24.20;1.00;;;;;;5168639;28;20045;-69
2023/08/13 06:27:26;;;;;;;6.65;3.38;;;24.30;1.00;;;;;;5178296;28;20052;-68
2023/08/13 06:30:01;;;;;;;4.20;3.35;;;24.60;1.00;;;;;;5204247;28;20476;-68
2023/08/13 06:32:40;;;;;;;4.60;3.40;;;24.60;1.00;;;;;;5208371;28;20035;-68
2023/08/13 06:35:15;;;;;;;3.80;3.13;;;24.70;1.00;;;;;;5204569;28;20037;-68
2023/08/13 06:37:49;;;;;;;3.97;3.35;;;25.10;1.00;;;;;;5171660;28;20044;-69
2023/08/13 06:40:23;;;;;;;3.60;3.30;;;25.30;1.00;;;;;;5219355;28;20045;-69
2023/08/13 06:43:03;;;;;;;3.90;3.50;;;25.20;1.00;;;;;;5203811;28;20058;-69
2023/08/13 06:45:35;;;;;;;4.15;3.30;;;25.40;1.00;;;;;;5202559;28;20021;-68
2023/08/13 06:48:09;;;;;;;4.85;3.35;;;25.50;1.00;;;;;;5168957;28;20045;-67
2023/08/13 06:50:48;;;;;;;4.72;3.03;;;25.70;1.00;;;;;;5201741;28;20032;-69
2023/08/13 06:53:20;;;;;;;3.35;3.05;;;25.80;1.00;;;;;;5185183;28;20041;-70
2023/08/13 06:55:52;;;;;;;4.32;3.08;;;26.20;1.00;;;;;;5200168;28;20032;-70
2023/08/13 06:58:26;;;;;;;3.83;3.03;;;26.50;1.00;;;;;;5197698;28;20045;-70
2023/08/13 07:01:03;;;;;;;3.97;3.35;;;26.80;1.00;;;;;;5183318;28;20033;-69
2023/08/13 07:03:37;;;;;;;3.65;3.28;;;26.70;1.00;;;;;;5199173;28;20049;-69
2023/08/13 07:06:14;;;;;;;3.97;3.58;;;26.70;1.00;;;;;;5178176;28;20048;-69
2023/08/13 07:08:46;;;;;;;3.40;2.92;;;26.90;1.00;;;;;;5186615;28;20057;-68
2023/08/13 07:11:18;;;;;;;4.47;3.40;;;27.20;1.00;;;;;;5180056;28;20045;-68
2023/08/13 07:13:51;;;;;;;9.48;3.97;;;27.30;1.00;;;;;;5173610;28;20044;-69
2023/08/13 07:16:26;;;;;;;7.07;4.27;;;27.20;1.00;;;;;;5228509;28;20146;-70
2023/08/13 07:19:01;;;;;;;5.55;3.28;;;27.00;1.00;;;;;;5220917;28;20246;-69
2023/08/13 07:21:36;;;;;;;3.75;3.38;;;27.10;1.00;;;;;;5193506;28;20111;-69
2023/08/13 07:24:10;;;;;;;3.40;3.10;;;27.20;1.00;;;;;;5202995;28;20053;-68
2023/08/13 07:26:42;;;;;;;5.60;3.67;;;27.00;1.00;;;;;;5218797;28;20629;-67
2023/08/13 07:29:13;;;;;;;3.60;3.28;;;26.90;1.00;;;;;;5219783;28;20033;-69
2023/08/13 07:31:46;;;;;;;6.63;3.88;;;27.10;1.00;;;;;;5182658;28;20530;-69
2023/08/13 07:34:21;;;;;;;6.05;3.55;;;27.40;1.00;;;;;;5170656;28;20355;-68
2023/08/13 07:36:53;;;;;;;4.07;3.70;;;27.60;1.00;;;;;;5169905;28;20067;-69
2023/08/13 07:39:27;;;;;;;6.65;3.55;;;28.00;1.00;;;;;;5186556;28;20037;-68
2023/08/13 07:42:04;;;;;;;3.42;3.13;;;28.20;1.00;;;;;;5175928;28;20060;-69
2023/08/13 07:44:36;;;;;;;4.05;3.50;;;28.50;1.00;;;;;;5188912;28;20355;-69
2023/08/13 07:47:11;;;;;;;5.07;3.80;;;28.50;1.00;;;;;;5184242;28;20037;-68
2023/08/13 07:49:43;;;;;;;4.20;3.53;;;28.20;1.00;;;;;;5196891;28;20356;-67
2023/08/13 07:52:18;;;;;;;5.40;3.28;;;27.90;1.00;;;;;;5192390;28;20310;-68
2023/08/13 07:54:52;;;;;;;5.80;3.03;;;27.60;1.00;;;;;;5218793;28;20301;-70
2023/08/13 07:57:30;;;;;;;4.85;3.75;;;27.80;1.00;;;;;;5219335;28;20061;-68
2023/08/13 08:00:10;;;;;;;7.30;3.53;;;27.80;1.00;;;;;;5195882;28;20467;-69
2023/08/13 08:02:45;;;;;;;3.63;3.33;;;28.20;1.00;;;;;;5187818;28;20049;-68
2023/08/13 08:05:17;;;;;;;;;;;28.50;1.00;;;;;;5167322;28;20037;-68
2023/08/13 08:07:49;;;;;;;4.05;3.65;;;28.70;1.00;;;;;;5200081;28;19917;-68
2023/08/13 08:10:24;;;;;;;3.72;3.08;;;28.60;1.00;;;;;;5196728;28;20040;-70
2023/08/13 08:12:59;;;;;;;5.03;3.58;;;28.70;1.00;;;;;;5193613;28;20049;-68
2023/08/13 08:15:34;;;;;;;4.22;3.20;;;28.80;1.00;;;;;;5196754;28;20040;-67
2023/08/13 08:18:06;;;;;;;4.28;3.25;;;29.10;1.00;;;;;;5189550;28;20037;-69
2023/08/13 08:20:37;;;;;;;4.03;3.60;;;29.30;1.00;;;;;;5164804;28;20045;-67
2023/08/13 08:23:13;;;;;;;5.43;3.78;;;29.20;1.00;;;;;;5192505;28;20034;-68
2023/08/13 08:25:45;;;;;;;5.15;3.97;;;29.20;1.00;;;;;;5194572;28;20221;-68
2023/08/13 08:28:20;;;;;;;4.00;3.22;;;29.30;1.00;;;;;;5159682;28;20075;-69
2023/08/13 08:30:56;;;;;;;4.05;3.45;;;29.50;1.00;;;;;;5196087;28;20036;-68
2023/08/13 08:33:30;;;;;;;3.92;3.53;;;29.90;1.00;;;;;;5236155;28;20032;-67
2023/08/13 08:36:05;;;;;;;5.32;3.72;;;30.10;1.00;;;;;;5189556;28;20512;-70
2023/08/13 08:38:42;;;;;;;4.22;3.17;;;30.40;1.00;;;;;;5189173;28;20133;-67
2023/08/13 08:41:15;;;;;;;3.80;3.50;;;30.50;1.00;;;;;;5193330;28;20055;-70
2023/08/13 08:43:50;;;;;;;5.25;3.60;;;30.40;1.00;;;;;;5203072;28;20056;-71
2023/08/13 08:46:26;;;;;;;3.92;3.53;;;30.60;1.00;;;;;;5216388;28;20033;-68
2023/08/13 08:49:00;;;;;;;4.28;3.25;;;31.30;1.00;;;;;;5194142;28;20060;-68
2023/08/13 08:51:36;;;;;;;6.60;3.63;;;31.50;1.00;;;;;;5197221;28;20095;-69
2023/08/13 08:54:10;;;;;;;3.05;2.75;;;31.70;1.00;;;;;;5185613;28;20041;-70
2023/08/13 08:56:41;;;;;;;3.65;3.35;;;32.00;1.00;;;;;;5188975;28;20119;-70
2023/08/13 08:59:17;;;;;;;3.42;3.13;;;32.00;1.00;;;;;;5195917;28;20033;-68
2023/08/13 09:01:54;;;;;;;4.22;3.55;;;31.60;1.00;;;;;;5175434;28;20048;-66
2023/08/13 09:04:25;;;;;;;4.82;3.05;;;31.80;1.00;;;;;;5223447;28;20309;-70
2023/08/13 09:07:03;;;;;;;3.15;2.85;;;31.90;1.00;;;;;;5223589;28;20037;-68
2023/08/13 09:09:37;;;;;;;3.75;3.22;;;31.90;1.00;;;;;;5197897;28;20067;-69
2023/08/13 09:12:19;;;;;;;4.90;3.38;;;31.90;1.00;;;;;;5222034;28;20033;-70
2023/08/13 09:14:59;;;;;;;3.58;3.28;;;32.20;1.00;;;;;;5204749;28;20033;-68
2023/08/13 09:17:34;;;;;;;3.83;3.38;;;32.10;1.00;;;;;;5150119;28;20071;-69
2023/08/13 09:20:27;;;;;;;3.50;3.20;;;32.20;1.00;;;;;;5209548;28;20057;-69
2023/08/13 09:23:00;;;;;;;3.78;3.30;;;32.70;1.00;;;;;;5176235;28;20329;-69
2023/08/13 09:25:31;;;;;;;4.18;3.50;;;32.80;1.00;;;;;;5184389;28;20051;-71
2023/08/13 09:28:04;;;;;;;5.13;3.22;;;32.70;1.00;;;;;;5168432;28;20356;-68
2023/08/13 09:30:40;;;;;;;4.72;3.97;;;32.70;1.00;;;;;;5153758;28;20470;-70
2023/08/13 09:33:17;;;;;;;3.90;3.50;;;32.90;1.00;;;;;;5181466;28;20044;-70
2023/08/13 09:35:51;;;;;;;5.20;3.15;;;33.00;1.00;;;;;;5205038;28;20036;-68
2023/08/13 09:38:25;;;;;;;4.28;3.65;;;32.70;1.00;;;;;;5220619;28;20198;-68
2023/08/13 09:40:57;;;;;;;;;;;32.80;1.00;;;;;;5203053;28;20377;-69
2023/08/13 09:43:31;;;;;;;5.05;4.10;;;33.30;1.00;;;;;;5223433;28;19909;-71
2023/08/13 09:46:06;;;;;;;3.60;3.20;;;33.20;1.00;;;;;;5201270;28;20061;-70
2023/08/13 09:48:38;;;;;;;3.80;3.20;;;33.40;1.00;;;;;;5193765;28;20268;-69
2023/08/13 09:51:15;;;;;;;3.85;3.47;;;33.80;1.00;;;;;;5204631;28;20448;-71
2023/08/13 09:54:00;;;;;;;4.53;4.10;;;34.10;1.00;;;;;;5203945;28;20357;-71
2023/08/13 09:56:33;;;;;;;4.00;3.58;;;34.20;1.00;;;;;;5204205;28;20226;-71
2023/08/13 09:59:10;;;;;;;4.13;3.83;;;33.90;1.00;;;;;;5197528;28;20044;-70
2023/08/13 10:01:46;;;;;;;4.03;3.42;;;33.90;1.00;;;;;;5187963;28;20052;-68
2023/08/13 10:04:24;;;;;;;3.97;3.58;;;34.00;1.00;;;;;;5175751;28;20048;-69
2023/08/13 10:06:56;;;;;;;4.28;3.70;;;34.00;1.00;;;;;;5184764;28;20052;-71
2023/08/13 10:09:32;;;;;;;4.00;3.17;;;34.30;1.00;;;;;;5184766;28;20352;-68
2023/08/13 10:12:06;;;;;;;3.50;3.20;;;33.90;1.00;;;;;;5204085;28;20318;-69
2023/08/13 10:14:39;;;;;;;5.63;3.65;;;34.10;1.00;;;;;;5200642;28;20033;-71
2023/08/13 10:17:17;;;;;;;4.32;3.60;;;34.50;1.00;;;;;;5199764;28;20033;-71
2023/08/13 10:19:56;;;;;;;3.90;3.58;;;34.90;1.00;;;;;;5215102;28;20076;-69
2023/08/13 10:22:37;;;;;;;3.85;3.50;;;35.40;1.00;;;;;;5205241;28;20241;-68
2023/08/13 10:25:10;;;;;;;3.25;2.95;;;35.60;1.00;;;;;;5217945;28;20037;-70
2023/08/13 10:27:54;;;;;;;3.97;3.60;;;35.30;1.00;;;;;;5204301;28;20048;-70
2023/08/13 10:30:25;;;;;;;4.88;3.45;;;36.20;1.00;;;;;;5182921;28;20328;-70
2023/08/13 10:33:03;;;;;;;3.40;3.10;;;36.30;1.00;;;;;;5182929;28;20360;-66
2023/08/13 10:35:39;;;;;;;3.95;3.42;;;36.40;1.00;;;;;;5222073;28;20301;-66
2023/08/13 10:38:10;;;;;;;4.40;3.42;;;36.30;1.00;;;;;;5204530;28;20039;-70
2023/08/13 10:41:03;;;;;;;5.25;3.13;;;36.80;1.00;;;;;;5199235;28;20041;-68
2023/08/13 10:43:37;;;;;;;3.88;3.58;;;37.80;1.00;;;;;;5202150;28;20041;-70
2023/08/13 10:46:13;;;;;;;3.47;2.95;;;38.00;1.00;;;;;;5219682;28;20323;-70
2023/08/13 10:48:45;;;;;;;3.40;3.10;;;38.50;1.00;;;;;;5203264;28;20588;-67
2023/08/13 10:51:29;;;;;;;4.53;3.10;;;38.80;1.00;;;;;;5205461;28;20051;-70
2023/08/13 10:54:06;;;;;;;3.72;3.42;;;40.10;1.00;;;;;;5188666;28;20045;-71
2023/08/13 10:56:42;;;;;;;4.15;3.40;;;40.40;1.00;;;;;;5221519;28;20033;-69
2023/08/13 10:59:18;;;;;;;3.60;3.30;;;40.00;1.00;;;;;;5213551;28;20029;-69
2023/08/13 11:02:30;;;;;;;4.10;3.70;;;40.00;1.00;;;;;;5188622;28;20044;-70
2023/08/13 11:05:04;;;;;;;4.05;3.53;;;39.10;1.00;;;;;;5203966;28;20055;-71
2023/08/13 11:07:39;;;;;;;4.35;3.38;;;38.20;1.00;;;;;;5204333;28;20037;-68
2023/08/13 11:10:24;;;;;;;3.67;3.38;;;38.50;1.00;;;;;;5162535;28;20180;-67
2023/08/13 11:12:58;;;;;;;3.40;3.10;;;39.30;1.00;;;;;;5219828;28;20040;-70
2023/08/13 11:15:34;;;;;;;4.13;3.72;;;39.90;1.00;;;;;;5202076;28;20044;-71
2023/08/13 11:18:12;;;;;;;3.17;2.97;;;41.30;1.00;;;;;;5213105;28;20044;-70
2023/08/13 11:20:46;;;;;;;2.60;2.40;;;41.00;1.00;;;;;;5182324;28;20056;-68
2023/08/13 11:23:22;;;;;;;3.00;2.80;;;41.70;1.00;;;;;;5198869;28;20143;-70
2023/08/13 11:25:59;;;;;;;3.67;3.38;;;42.20;1.00;;;;;;5183943;28;20151;-71
2023/08/13 11:28:32;;;;;;;3.67;2.95;;;42.30;1.00;;;;;;5196165;28;20039;-70
2023/08/13 11:31:13;;;;;;;3.50;3.20;;;42.10;1.00;;;;;;5198088;28;20218;-68
2023/08/13 11:33:49;;;;;;;3.53;3.22;;;41.30;1.00;;;;;;5220045;28;20029;-69
2023/08/13 11:36:21;;;;;;;3.83;3.53;;;41.00;1.00;;;;;;5187898;28;20033;-69
2023/08/13 11:38:53;;;;;;;3.50;3.20;;;41.40;1.00;;;;;;5168195;28;20258;-68
2023/08/13 11:41:30;;;;;;;5.07;2.83;;;41.80;1.00;;;;;;5175014;28;20254;-70
2023/08/13 11:44:10;;;;;;;4.25;3.50;;;42.70;1.00;;;;;;5177388;28;20053;-70
2023/08/13 11:46:55;;;;;;;4.63;3.85;;;43.20;1.00;;;;;;5199919;28;20293;-67
2023/08/13 11:49:27;;;;;;;2.97;2.67;;;42.90;1.00;;;;;;5211868;28;20033;-67
2023/08/13 11:52:00;;;;;;;3.00;2.80;;;42.10;1.00;;;;;;5166510;28;20174;-70
2023/08/13 11:54:35;;;;;;;3.35;3.05;;;42.10;1.00;;;;;;5199754;28;20052;-69
2023/08/13 11:57:06;;;;;;;3.30;3.00;;;41.70;1.00;;;;;;5218372;28;20048;-70
2023/08/13 11:59:38;;;;;;;3.28;2.97;;;41.20;1.00;;;;;;5189323;28;20113;-71
2023/08/13 12:02:16;;;;;;;3.28;2.97;;;41.40;1.00;;;;;;5213046;28;20049;-70
2023/08/13 12:04:48;;;;;;;3.95;2.75;;;41.20;1.00;;;;;;5201941;28;20546;-70
2023/08/13 12:07:21;;;;;;;;;;;41.70;1.00;;;;;;5219718;28;20384;-70
2023/08/13 12:09:56;;;;;;;3.30;3.00;;;41.80;1.00;;;;;;5205517;28;19923;-70
2023/08/13 12:12:28;;;;;;;2.90;2.70;;;42.20;1.00;;;;;;5195659;28;20037;-68
2023/08/13 12:15:02;;;;;;;2.85;2.65;;;41.80;1.00;;;;;;5183247;28;20048;-70
2023/08/13 12:17:33;;;;;;;3.10;2.90;;;42.50;1.00;;;;;;5178865;28;20056;-67
2023/08/13 12:20:07;;;;;;;2.67;2.47;;;43.00;1.00;;;;;;5220883;28;20033;-71
2023/08/13 12:22:41;;;;;;;3.35;2.55;;;42.70;1.00;;;;;;5220780;28;20427;-69
2023/08/13 12:25:16;;;;;;;2.75;2.55;;;42.70;1.00;;;;;;5201133;28;20033;-67
2023/08/13 12:27:54;;;;;;;2.78;2.50;;;42.70;1.00;;;;;;5221089;28;20245;-69
2023/08/13 12:30:31;;;;;;;2.70;2.50;;;43.40;1.00;;;;;;5187396;28;20063;-67
2023/08/13 12:33:06;;;;;;;2.88;2.67;;;41.10;1.00;;;;;;5201747;28;20033;-68
2023/08/13 12:35:38;;;;;;;2.97;2.30;;;40.90;1.00;;;;;;5177762;28;20039;-67
2023/08/13 12:38:09;;;;;;;2.53;2.33;;;40.80;1.00;;;;;;5194855;28;20055;-69
2023/08/13 12:40:45;;;;;;;5.43;2.75;;;41.40;1.00;;;;;;5201075;28;20576;-69
2023/08/13 12:43:24;;;;;;;2.85;2.58;;;40.90;1.00;;;;;;5206951;28;20043;-69
2023/08/13 12:45:55;;;;;;;2.70;2.50;;;40.30;1.00;;;;;;5188446;28;20044;-69
2023/08/13 12:48:32;;;;;;;2.60;2.40;;;39.60;1.00;;;;;;5225463;28;20029;-69
2023/08/13 12:51:06;;;;;;;3.50;2.65;;;39.90;1.00;;;;;;5190491;28;20391;-70
2023/08/13 12:53:41;;;;;;;2.50;2.30;;;40.10;1.00;;;;;;5206550;28;20246;-70
2023/08/13 12:56:19;;;;;;;2.88;2.67;;;40.70;1.00;;;;;;5223420;28;20037;-68
2023/08/13 12:58:53;;;;;;;2.40;2.20;;;41.80;1.00;;;;;;5218702;28;20051;-70
2023/08/13 13:01:24;;;;;;;2.72;2.53;;;43.00;1.00;;;;;;5214082;28;20305;-67
2023/08/13 13:03:57;;;;;;;2.72;2.53;;;42.80;1.00;;;;;;5173845;28;20040;-67
2023/08/13 13:06:30;;;;;;;2.60;2.40;;;41.60;1.00;;;;;;5191112;28;20047;-70
2023/08/13 13:09:04;;;;;;;4.97;2.63;;;40.40;1.00;;;;;;5188791;28;20502;-72
2023/08/13 13:11:39;;;;;;;3.38;3.08;;;41.10;1.00;;;;;;5168727;28;20049;-70
2023/08/13 13:14:11;;;;;;;3.38;2.42;;;41.80;1.00;;;;;;5200025;28;20062;-71
2023/08/13 13:16:43;;;;;;;2.08;1.98;;;42.00;1.00;;;;;;5224861;28;20040;-67
2023/08/13 13:19:15;;;;;;;2.30;2.10;;;41.90;1.00;;;;;;5239865;28;20036;-70
2023/08/13 13:21:47;;;;;;;2.15;2.05;;;42.50;1.00;;;;;;5205992;28;20091;-69
2023/08/13 13:24:26;;;;;;;2.28;2.10;;;42.10;1.00;;;;;;5206145;28;20047;-72
2023/08/13 13:27:04;;;;;;;4.82;2.50;;;42.10;1.00;;;;;;5206684;28;20040;-67
2023/08/13 13:29:41;;;;;;;2.53;2.25;;;41.80;1.00;;;;;;5220804;28;20237;-68
2023/08/13 13:32:16;;;;;;;2.42;2.22;;;42.00;1.00;;;;;;5197834;28;20041;-71
2023/08/13 13:34:51;;;;;;;6.10;2.40;;;41.80;1.00;;;;;;5205787;28;20181;-68
2023/08/13 13:37:27;;;;;;;2.40;2.20;;;41.20;1.00;;;;;;5222681;28;20051;-67